sensor_id;sensor_type;location;lat;lon;timestamp;pressure;altitude;pressure_sealevel;temperature;humidity
17054;BME280;8643;48.824;11.422;2023-08-07T00:00:39;96445.06;;;10.31;100.00
17054;BME280;8643;48.824;11.422;2023-08-07T00:03:07;96448.72;;;10.23;100.00
17054;BME280;8643;48.824;11.422;2023-08-07T00:05:36;96456.53;;;10.33;100.00
17054;BME280;8643;48.824;11.422;2023-08-07T00:08:04;96458.75;;;10.31;100.00
17054;BME280;8643;48.824;11.422;2023-08-07T00:10:33;96464.47;;;10.14;100.00
17054;BME280;8643;48.824;11.422;2023-08-07T00:13:03;96456.38;;;10.17;100.00
17054;BME280;8643;48.824;11.422;2023-08-07T00:15:31;96471.28;;;10.07;100.00
17054;BME280;8643;48.824;11.422;2023-08-07T00:18:00;96462.41;;;10.11;100.00
17054;BME280;8643;48.824;11.422;2023-08-07T00:20:29;96465.34;;;10.05;100.00
17054;BME280;8643;48.824;11.422;2023-08-07T00:22:57;96468.06;;;10.05;100.00
17054;BME280;8643;48.824;11.422;2023-08-07T00:25:26;96458.97;;;10.01;100.00
17054;BME280;8643;48.824;11.422;2023-08-07T00:27:54;96452.03;;;10.04;100.00
17054;BME280;8643;48.824;11.422;2023-08-07T00:30:24;96458.50;;;9.99;100.00
17054;BME280;8643;48.824;11.422;2023-08-07T00:32:52;96460.56;;;10.02;100.00
17054;BME280;8643;48.824;11.422;2023-08-07T00:35:22;96447.81;;;10.06;100.00
17054;BME280;8643;48.824;11.422;2023-08-07T00:37:50;96445.97;;;9.98;100.00
17054;BME280;8643;48.824;11.422;2023-08-07T00:40:19;96450.16;;;9.96;100.00
17054;BME280;8643;48.824;11.422;2023-08-07T00:42:47;96456.91;;;9.98;100.00
17054;BME280;8643;48.824;11.422;2023-08-07T00:45:16;96454.28;;;10.02;100.00
17054;BME280;8643;48.824;11.422;2023-08-07T00:47:46;96440.03;;;9.96;100.00
17054;BME280;8643;48.824;11.422;2023-08-07T00:50:15;96454.72;;;9.91;100.00
17054;BME280;8643;48.824;11.422;2023-08-07T00:52:44;96440.03;;;9.96;100.00
17054;BME280;8643;48.824;11.422;2023-08-07T00:55:13;96445.41;;;9.93;100.00
17054;BME280;8643;48.824;11.422;2023-08-07T00:57:41;96445.75;;;9.91;100.00
17054;BME280;8643;48.824;11.422;2023-08-07T01:00:13;96444.03;;;9.86;100.00
17054;BME280;8643;48.824;11.422;2023-08-07T01:02:43;96444.59;;;9.92;100.00
17054;BME280;8643;48.824;11.422;2023-08-07T01:05:13;96439.22;;;9.83;100.00
17054;BME280;8643;48.824;11.422;2023-08-07T01:07:41;96450.38;;;9.90;100.00
17054;BME280;8643;48.824;11.422;2023-08-07T01:10:10;96448.00;;;9.89;100.00
17054;BME280;8643;48.824;11.422;2023-08-07T01:12:48;96449.50;;;9.99;100.00
17054;BME280;8643;48.824;11.422;2023-08-07T01:15:27;96441.97;;;9.96;100.00
17054;BME280;8643;48.824;11.422;2023-08-07T01:17:59;96445.97;;;9.98;100.00
17054;BME280;8643;48.824;11.422;2023-08-07T01:20:30;96445.19;;;9.98;100.00
17054;BME280;8643;48.824;11.422;2023-08-07T01:23:00;96456.22;;;10.01;100.00
17054;BME280;8643;48.824;11.422;2023-08-07T01:25:29;96459.19;;;9.96;100.00
17054;BME280;8643;48.824;11.422;2023-08-07T01:28:05;96457.34;;;10.00;100.00
17054;BME280;8643;48.824;11.422;2023-08-07T01:30:41;96458.97;;;10.01;100.00
17054;BME280;8643;48.824;11.422;2023-08-07T01:33:15;96444.34;;;9.97;100.00
17054;BME280;8643;48.824;11.422;2023-08-07T01:35:49;96446.91;;;10.02;100.00
17054;BME280;8643;48.824;11.422;2023-08-07T01:38:23;96467.50;;;10.00;100.00
17054;BME280;8643;48.824;11.422;2023-08-07T01:40:53;96455.06;;;9.90;100.00
17054;BME280;8643;48.824;11.422;2023-08-07T01:43:21;96458.94;;;9.89;100.00
17054;BME280;8643;48.824;11.422;2023-08-07T01:45:50;96460.78;;;9.97;100.00
17054;BME280;8643;48.824;11.422;2023-08-07T01:48:19;96462.38;;;9.98;100.00
17054;BME280;8643;48.824;11.422;2023-08-07T01:50:50;96471.50;;;10.02;100.00
17054;BME280;8643;48.824;11.422;2023-08-07T01:53:19;96469.22;;;10.04;100.00
17054;BME280;8643;48.824;11.422;2023-08-07T01:55:48;96488.59;;;9.99;100.00
17054;BME280;8643;48.824;11.422;2023-08-07T01:58:16;96482.47;;;10.02;100.00
17054;BME280;8643;48.824;11.422;2023-08-07T02:00:45;96475.38;;;10.01;100.00
17054;BME280;8643;48.824;11.422;2023-08-07T02:03:13;96478.00;;;9.98;100.00
17054;BME280;8643;48.824;11.422;2023-08-07T02:05:45;96479.13;;;9.97;100.00
17054;BME280;8643;48.824;11.422;2023-08-07T02:08:14;96487.22;;;9.93;100.00
17054;BME280;8643;48.824;11.422;2023-08-07T02:10:44;96484.13;;;9.95;100.00
17054;BME280;8643;48.824;11.422;2023-08-07T02:13:13;96487.09;;;9.89;100.00
17054;BME280;8643;48.824;11.422;2023-08-07T02:15:42;96490.97;;;9.88;100.00
17054;BME280;8643;48.824;11.422;2023-08-07T02:18:10;96487.09;;;9.89;100.00
17054;BME280;8643;48.824;11.422;2023-08-07T02:20:39;96488.44;;;9.83;100.00
17054;BME280;8643;48.824;11.422;2023-08-07T02:23:08;96489.22;;;9.84;100.00
17054;BME280;8643;48.824;11.422;2023-08-07T02:25:36;96494.69;;;9.84;100.00
17054;BME280;8643;48.824;11.422;2023-08-07T02:28:06;96495.16;;;9.86;100.00
17054;BME280;8643;48.824;11.422;2023-08-07T02:30:34;96505.97;;;9.82;100.00
17054;BME280;8643;48.824;11.422;2023-08-07T02:33:03;96488.31;;;9.80;100.00
17054;BME280;8643;48.824;11.422;2023-08-07T02:35:31;96511.31;;;9.79;100.00
17054;BME280;8643;48.824;11.422;2023-08-07T02:38:00;96510.59;;;9.69;100.00
17054;BME280;8643;48.824;11.422;2023-08-07T02:40:28;96501.50;;;9.65;100.00
17054;BME280;8643;48.824;11.422;2023-08-07T02:42:57;96524.59;;;9.68;100.00
17054;BME280;8643;48.824;11.422;2023-08-07T02:45:27;96513.16;;;9.75;100.00
17054;BME280;8643;48.824;11.422;2023-08-07T02:47:55;96511.97;;;9.63;100.00
17054;BME280;8643;48.824;11.422;2023-08-07T02:50:24;96512.44;;;9.65;100.00
17054;BME280;8643;48.824;11.422;2023-08-07T02:52:54;96527.69;;;9.66;100.00
17054;BME280;8643;48.824;11.422;2023-08-07T02:55:23;96521.53;;;9.69;100.00
17054;BME280;8643;48.824;11.422;2023-08-07T02:57:51;96527.00;;;9.69;100.00
17054;BME280;8643;48.824;11.422;2023-08-07T03:00:20;96522.34;;;9.70;100.00
17054;BME280;8643;48.824;11.422;2023-08-07T03:02:52;96530.91;;;9.68;100.00
17054;BME280;8643;48.824;11.422;2023-08-07T03:05:20;96530.50;;;9.58;100.00
17054;BME280;8643;48.824;11.422;2023-08-07T03:07:48;96537.91;;;9.57;100.00
17054;BME280;8643;48.824;11.422;2023-08-07T03:10:17;96527.44;;;9.59;100.00
17054;BME280;8643;48.824;11.422;2023-08-07T03:12:46;96530.44;;;9.66;100.00
17054;BME280;8643;48.824;11.422;2023-08-07T03:15:14;96527.22;;;9.64;100.00
17054;BME280;8643;48.824;11.422;2023-08-07T03:17:43;96537.16;;;9.69;100.00
17054;BME280;8643;48.824;11.422;2023-08-07T03:20:13;96536.25;;;9.65;100.00
17054;BME280;8643;48.824;11.422;2023-08-07T03:22:41;96539.44;;;9.67;100.00
17054;BME280;8643;48.824;11.422;2023-08-07T03:25:10;96550.47;;;9.70;100.00
17054;BME280;8643;48.824;11.422;2023-08-07T03:27:39;96548.28;;;9.64;100.00
17054;BME280;8643;48.824;11.422;2023-08-07T03:30:08;96538.69;;;9.58;100.00
17054;BME280;8643;48.824;11.422;2023-08-07T03:32:37;96550.63;;;9.53;100.00
17054;BME280;8643;48.824;11.422;2023-08-07T03:35:06;96552.81;;;9.60;100.00
17054;BME280;8643;48.824;11.422;2023-08-07T03:37:36;96559.56;;;9.62;100.00
17054;BME280;8643;48.824;11.422;2023-08-07T03:40:08;96561.72;;;9.57;100.00
17054;BME280;8643;48.824;11.422;2023-08-07T03:42:37;96566.91;;;9.49;100.00
17054;BME280;8643;48.824;11.422;2023-08-07T03:45:07;96563.03;;;9.50;100.00
17054;BME280;8643;48.824;11.422;2023-08-07T03:47:38;96570.63;;;9.45;100.00
17054;BME280;8643;48.824;11.422;2023-08-07T03:50:07;96569.50;;;9.46;100.00
17054;BME280;8643;48.824;11.422;2023-08-07T03:52:37;96563.75;;;9.39;100.00
17054;BME280;8643;48.824;11.422;2023-08-07T03:55:07;96574.50;;;9.44;100.00
17054;BME280;8643;48.824;11.422;2023-08-07T03:57:35;96577.69;;;9.46;100.00
17054;BME280;8643;48.824;11.422;2023-08-07T04:00:05;96579.34;;;9.38;100.00
17054;BME280;8643;48.824;11.422;2023-08-07T04:02:40;96575.84;;;9.38;100.00
17054;BME280;8643;48.824;11.422;2023-08-07T04:05:11;96586.91;;;9.41;100.00
17054;BME280;8643;48.824;11.422;2023-08-07T04:07:40;96580.50;;;9.37;100.00
17054;BME280;8643;48.824;11.422;2023-08-07T04:10:09;96588.72;;;9.37;100.00
17054;BME280;8643;48.824;11.422;2023-08-07T04:12:38;96589.97;;;9.40;100.00
17054;BME280;8643;48.824;11.422;2023-08-07T04:15:08;96592.78;;;9.52;100.00
17054;BME280;8643;48.824;11.422;2023-08-07T04:17:37;96592.78;;;9.52;100.00
17054;BME280;8643;48.824;11.422;2023-08-07T04:20:07;96597.25;;;9.57;100.00
17054;BME280;8643;48.824;11.422;2023-08-07T04:22:39;96602.56;;;9.53;100.00
17054;BME280;8643;48.824;11.422;2023-08-07T04:25:09;96607.63;;;9.42;100.00
17054;BME280;8643;48.824;11.422;2023-08-07T04:27:37;96612.44;;;9.45;100.00
17054;BME280;8643;48.824;11.422;2023-08-07T04:30:07;96606.81;;;9.42;100.00
17054;BME280;8643;48.824;11.422;2023-08-07T04:32:36;96606.03;;;9.41;100.00
17054;BME280;8643;48.824;11.422;2023-08-07T04:35:06;96610.50;;;9.46;100.00
17054;BME280;8643;48.824;11.422;2023-08-07T04:37:34;96606.97;;;9.45;100.00
17054;BME280;8643;48.824;11.422;2023-08-07T04:40:06;96608.88;;;9.45;100.00
17054;BME280;8643;48.824;11.422;2023-08-07T04:42:35;96613.91;;;9.43;100.00
17054;BME280;8643;48.824;11.422;2023-08-07T04:45:05;96622.88;;;9.43;100.00
17054;BME280;8643;48.824;11.422;2023-08-07T04:47:33;96620.69;;;9.36;100.00
17054;BME280;8643;48.824;11.422;2023-08-07T04:50:03;96620.88;;;9.31;100.00
17054;BME280;8643;48.824;11.422;2023-08-07T04:52:31;96626.59;;;9.39;100.00
17054;BME280;8643;48.824;11.422;2023-08-07T04:55:00;96615.09;;;9.33;100.00
17054;BME280;8643;48.824;11.422;2023-08-07T04:57:30;96621.00;;;9.35;100.00
17054;BME280;8643;48.824;11.422;2023-08-07T04:59:58;96621.66;;;9.32;100.00
17054;BME280;8643;48.824;11.422;2023-08-07T05:02:27;96625.81;;;9.38;100.00
17054;BME280;8643;48.824;11.422;2023-08-07T05:04:55;96634.22;;;9.33;100.00
17054;BME280;8643;48.824;11.422;2023-08-07T05:07:24;96630.34;;;9.34;100.00
17054;BME280;8643;48.824;11.422;2023-08-07T05:09:52;96635.66;;;9.30;100.00
17054;BME280;8643;48.824;11.422;2023-08-07T05:12:21;96641.81;;;9.27;100.00
17054;BME280;8643;48.824;11.422;2023-08-07T05:14:51;96633.13;;;9.25;100.00
17054;BME280;8643;48.824;11.422;2023-08-07T05:17:19;96639.53;;;9.29;100.00
17054;BME280;8643;48.824;11.422;2023-08-07T05:19:47;96638.91;;;9.24;100.00
17054;BME280;8643;48.824;11.422;2023-08-07T05:22:16;96646.00;;;9.25;100.00
17054;BME280;8643;48.824;11.422;2023-08-07T05:24:44;96644.56;;;9.18;100.00
17054;BME280;8643;48.824;11.422;2023-08-07T05:27:13;96644.72;;;9.22;100.00
17054;BME280;8643;48.824;11.422;2023-08-07T05:29:41;96648.25;;;9.23;100.00
17054;BME280;8643;48.824;11.422;2023-08-07T05:32:14;96652.75;;;9.27;100.00
17054;BME280;8643;48.824;11.422;2023-08-07T05:34:43;96659.66;;;9.25;100.00
17054;BME280;8643;48.824;11.422;2023-08-07T05:37:12;96660.25;;;9.30;100.00
17054;BME280;8643;48.824;11.422;2023-08-07T05:39:40;96661.25;;;9.26;100.00
17054;BME280;8643;48.824;11.422;2023-08-07T05:42:09;96664.78;;;9.26;100.00
17054;BME280;8643;48.824;11.422;2023-08-07T05:44:37;96659.03;;;9.19;100.00
17054;BME280;8643;48.824;11.422;2023-08-07T05:47:07;96668.97;;;9.24;100.00
17054;BME280;8643;48.824;11.422;2023-08-07T05:49:37;96674.59;;;9.27;100.00
17054;BME280;8643;48.824;11.422;2023-08-07T05:52:07;96674.75;;;9.22;100.00
17054;BME280;8643;48.824;11.422;2023-08-07T05:54:35;96672.84;;;9.23;100.00
17054;BME280;8643;48.824;11.422;2023-08-07T05:57:05;96681.03;;;9.23;100.00
17054;BME280;8643;48.824;11.422;2023-08-07T05:59:33;96686.84;;;9.21;100.00
17054;BME280;8643;48.824;11.422;2023-08-07T06:02:03;96685.22;;;9.20;100.00
17054;BME280;8643;48.824;11.422;2023-08-07T06:04:33;96691.13;;;9.31;100.00
17054;BME280;8643;48.824;11.422;2023-08-07T06:07:03;96694.84;;;9.26;100.00
17054;BME280;8643;48.824;11.422;2023-08-07T06:09:31;96699.34;;;9.22;100.00
17054;BME280;8643;48.824;11.422;2023-08-07T06:12:00;96689.38;;;9.26;100.00
17054;BME280;8643;48.824;11.422;2023-08-07T06:14:29;96703.63;;;9.41;100.00
17054;BME280;8643;48.824;11.422;2023-08-07T06:16:57;96698.66;;;9.34;100.00
17054;BME280;8643;48.824;11.422;2023-08-07T06:19:28;96703.31;;;9.33;100.00
17054;BME280;8643;48.824;11.422;2023-08-07T06:21:59;96707.78;;;9.38;100.00
17054;BME280;8643;48.824;11.422;2023-08-07T06:24:29;96702.19;;;9.34;100.00
17054;BME280;8643;48.824;11.422;2023-08-07T06:26:58;96714.25;;;9.33;100.00
17054;BME280;8643;48.824;11.422;2023-08-07T06:29:26;96710.50;;;9.47;100.00
17054;BME280;8643;48.824;11.422;2023-08-07T06:31:54;96714.16;;;9.51;100.00
17054;BME280;8643;48.824;11.422;2023-08-07T06:34:23;96705.16;;;9.50;100.00
17054;BME280;8643;48.824;11.422;2023-08-07T06:36:51;96714.34;;;9.46;100.00
17054;BME280;8643;48.824;11.422;2023-08-07T06:39:20;96723.34;;;9.46;100.00
17054;BME280;8643;48.824;11.422;2023-08-07T06:41:49;96723.53;;;9.41;100.00
17054;BME280;8643;48.824;11.422;2023-08-07T06:44:23;96725.16;;;9.42;100.00
17054;BME280;8643;48.824;11.422;2023-08-07T06:46:51;96722.88;;;9.44;100.00
17054;BME280;8643;48.824;11.422;2023-08-07T06:49:20;96731.41;;;9.43;100.00
17054;BME280;8643;48.824;11.422;2023-08-07T06:51:48;96730.28;;;9.44;100.00
17054;BME280;8643;48.824;11.422;2023-08-07T06:54:17;96732.63;;;9.54;100.00
17054;BME280;8643;48.824;11.422;2023-08-07T06:56:45;96730.13;;;9.70;100.00
17054;BME280;8643;48.824;11.422;2023-08-07T06:59:15;96734.56;;;9.53;100.00
17054;BME280;8643;48.824;11.422;2023-08-07T07:01:44;96739.03;;;9.58;100.00
17054;BME280;8643;48.824;11.422;2023-08-07T07:04:12;96739.84;;;9.59;100.00
17054;BME280;8643;48.824;11.422;2023-08-07T07:06:40;96744.00;;;9.65;100.00
17054;BME280;8643;48.824;11.422;2023-08-07T07:09:09;96739.03;;;9.58;100.00
17054;BME280;8643;48.824;11.422;2023-08-07T07:11:38;96740.63;;;9.59;100.00
17054;BME280;8643;48.824;11.422;2023-08-07T07:14:06;96751.13;;;9.48;100.00
17054;BME280;8643;48.824;11.422;2023-08-07T07:16:36;96748.19;;;9.62;100.00
17054;BME280;8643;48.824;11.422;2023-08-07T07:19:05;96747.59;;;9.78;100.00
17054;BME280;8643;48.824;11.422;2023-08-07T07:21:35;96752.41;;;9.81;100.00
17054;BME280;8643;48.824;11.422;2023-08-07T07:24:05;96756.56;;;9.87;100.00
17054;BME280;8643;48.824;11.422;2023-08-07T07:26:33;96762.91;;;10.00;100.00
17054;BME280;8643;48.824;11.422;2023-08-07T07:29:01;96753.50;;;10.09;100.00
17054;BME280;8643;48.824;11.422;2023-08-07T07:31:30;96768.00;;;10.10;100.00
17054;BME280;8643;48.824;11.422;2023-08-07T07:34:00;96767.00;;;10.15;100.00
17054;BME280;8643;48.824;11.422;2023-08-07T07:36:29;96774.31;;;10.02;100.00
17054;BME280;8643;48.824;11.422;2023-08-07T07:38:57;96765.00;;;10.03;100.00
17054;BME280;8643;48.824;11.422;2023-08-07T07:41:26;96774.41;;;10.14;100.00
17054;BME280;8643;48.824;11.422;2023-08-07T07:43:54;96773.41;;;10.19;100.00
17054;BME280;8643;48.824;11.422;2023-08-07T07:46:23;96777.28;;;10.18;100.00
17054;BME280;8643;48.824;11.422;2023-08-07T07:48:52;96782.53;;;10.23;100.00
17054;BME280;8643;48.824;11.422;2023-08-07T07:51:21;96790.03;;;10.14;100.00
17054;BME280;8643;48.824;11.422;2023-08-07T07:53:50;96784.19;;;10.15;100.00
17054;BME280;8643;48.824;11.422;2023-08-07T07:56:38;96782.09;;;10.21;100.00
17054;BME280;8643;48.824;11.422;2023-08-07T07:59:08;96782.09;;;10.21;100.00
17054;BME280;8643;48.824;11.422;2023-08-07T08:01:37;96789.09;;;10.31;100.00
17054;BME280;8643;48.824;11.422;2023-08-07T08:04:06;96792.25;;;10.20;100.00
17054;BME280;8643;48.824;11.422;2023-08-07T08:06:36;96791.72;;;10.27;100.00
17054;BME280;8643;48.824;11.422;2023-08-07T08:09:05;96806.06;;;10.24;100.00
17054;BME280;8643;48.824;11.422;2023-08-07T08:11:36;96804.09;;;10.24;100.00
17054;BME280;8643;48.824;11.422;2023-08-07T08:14:05;96805.44;;;10.18;100.00
17054;BME280;8643;48.824;11.422;2023-08-07T08:16:33;96810.03;;;10.26;100.00
17054;BME280;8643;48.824;11.422;2023-08-07T08:19:02;96813.09;;;10.34;100.00
17054;BME280;8643;48.824;11.422;2023-08-07T08:21:30;96813.69;;;10.39;100.00
17054;BME280;8643;48.824;11.422;2023-08-07T08:24:01;96819.88;;;10.27;100.00
17054;BME280;8643;48.824;11.422;2023-08-07T08:26:29;96823.72;;;10.35;100.00
17054;BME280;8643;48.824;11.422;2023-08-07T08:28:58;96824.03;;;10.34;100.00
17054;BME280;8643;48.824;11.422;2023-08-07T08:31:26;96824.97;;;10.38;100.00
17054;BME280;8643;48.824;11.422;2023-08-07T08:33:55;96839.13;;;10.40;100.00
17054;BME280;8643;48.824;11.422;2023-08-07T08:36:25;96838.19;;;10.36;100.00
17054;BME280;8643;48.824;11.422;2023-08-07T08:38:53;96836.56;;;10.35;100.00
17054;BME280;8643;48.824;11.422;2023-08-07T08:41:23;96847.34;;;10.40;100.00
17054;BME280;8643;48.824;11.422;2023-08-07T08:43:54;96851.00;;;10.44;100.00
17054;BME280;8643;48.824;11.422;2023-08-07T08:46:28;96846.00;;;10.46;100.00
17054;BME280;8643;48.824;11.422;2023-08-07T08:48:57;96855.16;;;10.50;100.00
17054;BME280;8643;48.824;11.422;2023-08-07T08:51:27;96853.84;;;10.56;100.00
17054;BME280;8643;48.824;11.422;2023-08-07T08:53:56;96858.31;;;10.61;100.00
17054;BME280;8643;48.824;11.422;2023-08-07T08:56:26;96863.72;;;10.70;100.00
17054;BME280;8643;48.824;11.422;2023-08-07T08:58:54;96848.34;;;10.56;100.00
17054;BME280;8643;48.824;11.422;2023-08-07T09:01:25;96863.97;;;10.56;100.00
17054;BME280;8643;48.824;11.422;2023-08-07T09:03:55;96863.97;;;10.77;100.00
17054;BME280;8643;48.824;11.422;2023-08-07T09:06:25;96861.97;;;10.86;100.00
17054;BME280;8643;48.824;11.422;2023-08-07T09:08:58;96868.69;;;11.10;100.00
17054;BME280;8643;48.824;11.422;2023-08-07T09:11:29;96863.59;;;11.21;100.00
17054;BME280;8643;48.824;11.422;2023-08-07T09:14:00;96871.63;;;11.38;100.00
17054;BME280;8643;48.824;11.422;2023-08-07T09:16:30;96873.03;;;11.44;100.00
17054;BME280;8643;48.824;11.422;2023-08-07T09:18:59;96871.63;;;11.38;100.00
17054;BME280;8643;48.824;11.422;2023-08-07T09:21:31;96878.84;;;11.43;100.00
17054;BME280;8643;48.824;11.422;2023-08-07T09:24:00;96881.50;;;11.51;100.00
17054;BME280;8643;48.824;11.422;2023-08-07T09:26:32;96881.81;;;11.37;100.00
17054;BME280;8643;48.824;11.422;2023-08-07T09:29:02;96879.41;;;11.48;100.00
17054;BME280;8643;48.824;11.422;2023-08-07T09:31:31;96886.19;;;11.63;100.00
17054;BME280;8643;48.824;11.422;2023-08-07T09:34:02;96886.69;;;11.78;100.00
17054;BME280;8643;48.824;11.422;2023-08-07T09:36:34;96887.50;;;11.90;100.00
17054;BME280;8643;48.824;11.422;2023-08-07T09:39:03;96890.16;;;11.99;100.00
17054;BME280;8643;48.824;11.422;2023-08-07T09:41:33;96888.91;;;12.21;100.00
17054;BME280;8643;48.824;11.422;2023-08-07T09:44:07;96894.16;;;12.26;100.00
17054;BME280;8643;48.824;11.422;2023-08-07T09:46:41;96896.00;;;12.35;100.00
17054;BME280;8643;48.824;11.422;2023-08-07T09:49:11;96887.53;;;12.40;100.00
17054;BME280;8643;48.824;11.422;2023-08-07T09:51:42;96897.47;;;12.57;100.00
17054;BME280;8643;48.824;11.422;2023-08-07T09:54:12;96902.03;;;12.65;100.00
17054;BME280;8643;48.824;11.422;2023-08-07T09:56:44;96897.13;;;12.58;100.00
17054;BME280;8643;48.824;11.422;2023-08-07T09:59:14;96896.78;;;12.60;100.00
17054;BME280;8643;48.824;11.422;2023-08-07T10:01:44;96907.44;;;12.61;100.00
17054;BME280;8643;48.824;11.422;2023-08-07T10:04:12;96896.88;;;12.63;100.00
17054;BME280;8643;48.824;11.422;2023-08-07T10:06:44;96910.19;;;12.61;100.00
17054;BME280;8643;48.824;11.422;2023-08-07T10:09:13;96908.25;;;12.90;100.00
17054;BME280;8643;48.824;11.422;2023-08-07T10:11:43;96921.81;;;12.83;100.00
17054;BME280;8643;48.824;11.422;2023-08-07T10:14:14;96895.81;;;12.80;100.00
17054;BME280;8643;48.824;11.422;2023-08-07T10:16:46;96908.47;;;12.57;100.00
17054;BME280;8643;48.824;11.422;2023-08-07T10:19:15;96922.75;;;12.75;100.00
17054;BME280;8643;48.824;11.422;2023-08-07T10:21:45;96907.09;;;12.63;100.00
17054;BME280;8643;48.824;11.422;2023-08-07T10:24:15;96919.16;;;12.74;100.00
17054;BME280;8643;48.824;11.422;2023-08-07T10:26:47;96928.19;;;12.87;100.00
17054;BME280;8643;48.824;11.422;2023-08-07T10:29:19;96914.88;;;13.01;100.00
17054;BME280;8643;48.824;11.422;2023-08-07T10:31:51;96926.63;;;13.14;100.00
17054;BME280;8643;48.824;11.422;2023-08-07T10:34:22;96926.94;;;13.25;100.00
17054;BME280;8643;48.824;11.422;2023-08-07T10:36:50;96919.94;;;13.40;100.00
17054;BME280;8643;48.824;11.422;2023-08-07T10:39:19;96920.69;;;13.53;100.00
17054;BME280;8643;48.824;11.422;2023-08-07T10:41:54;96924.47;;;13.48;100.00
17054;BME280;8643;48.824;11.422;2023-08-07T10:44:24;96922.41;;;13.45;100.00
17054;BME280;8643;48.824;11.422;2023-08-07T10:46:54;96923.03;;;13.38;100.00
17054;BME280;8643;48.824;11.422;2023-08-07T10:49:32;96918.53;;;13.46;100.00
17054;BME280;8643;48.824;11.422;2023-08-07T10:52:04;96924.69;;;13.71;100.00
17054;BME280;8643;48.824;11.422;2023-08-07T10:54:38;96918.88;;;14.05;100.00
17054;BME280;8643;48.824;11.422;2023-08-07T10:57:13;96914.25;;;14.09;100.00
17054;BME280;8643;48.824;11.422;2023-08-07T10:59:48;96903.50;;;14.04;100.00
17054;BME280;8643;48.824;11.422;2023-08-07T11:02:25;96921.69;;;13.92;100.00
17054;BME280;8643;48.824;11.422;2023-08-07T11:04:54;96929.31;;;13.83;100.00
17054;BME280;8643;48.824;11.422;2023-08-07T11:07:27;96926.13;;;13.81;100.00
17054;BME280;8643;48.824;11.422;2023-08-07T11:09:58;96928.34;;;13.91;100.00
17054;BME280;8643;48.824;11.422;2023-08-07T11:12:28;96928.44;;;13.79;100.00
17054;BME280;8643;48.824;11.422;2023-08-07T11:14:57;96919.91;;;13.84;100.00
17054;BME280;8643;48.824;11.422;2023-08-07T11:17:27;96928.91;;;13.97;100.00
17054;BME280;8643;48.824;11.422;2023-08-07T11:19:56;96915.75;;;14.22;100.00
17054;BME280;8643;48.824;11.422;2023-08-07T11:22:24;96924.84;;;14.23;100.00
17054;BME280;8643;48.824;11.422;2023-08-07T11:24:53;96912.91;;;14.19;100.00
17054;BME280;8643;48.824;11.422;2023-08-07T11:27:22;96921.41;;;13.82;100.00
17054;BME280;8643;48.824;11.422;2023-08-07T11:29:51;96921.50;;;13.69;100.00
17054;BME280;8643;48.824;11.422;2023-08-07T11:32:21;96913.16;;;13.82;100.00
17054;BME280;8643;48.824;11.422;2023-08-07T11:34:50;96919.75;;;14.25;100.00
17054;BME280;8643;48.824;11.422;2023-08-07T11:37:19;96919.69;;;14.57;100.00
17054;BME280;8643;48.824;11.422;2023-08-07T11:39:48;96913.16;;;14.61;100.00
17054;BME280;8643;48.824;11.422;2023-08-07T11:42:17;96916.22;;;14.76;100.00
17054;BME280;8643;48.824;11.422;2023-08-07T11:44:45;96922.06;;;14.90;99.30
17054;BME280;8643;48.824;11.422;2023-08-07T11:47:15;96921.78;;;14.95;100.00
17054;BME280;8643;48.824;11.422;2023-08-07T11:49:44;96923.06;;;14.82;97.22
17054;BME280;8643;48.824;11.422;2023-08-07T11:52:13;96922.91;;;14.75;100.00
17054;BME280;8643;48.824;11.422;2023-08-07T11:54:47;96930.00;;;14.76;98.44
17054;BME280;8643;48.824;11.422;2023-08-07T11:57:17;96934.34;;;14.93;93.63
17054;BME280;8643;48.824;11.422;2023-08-07T11:59:49;96919.38;;;14.94;94.35
17054;BME280;8643;48.824;11.422;2023-08-07T12:02:24;96932.41;;;15.13;96.25
17054;BME280;8643;48.824;11.422;2023-08-07T12:04:58;96931.88;;;15.27;94.66
17054;BME280;8643;48.824;11.422;2023-08-07T12:07:28;96940.88;;;15.43;94.08
17054;BME280;8643;48.824;11.422;2023-08-07T12:10:03;96943.44;;;15.52;92.23
17054;BME280;8643;48.824;11.422;2023-08-07T12:12:34;96940.03;;;15.78;91.53
17054;BME280;8643;48.824;11.422;2023-08-07T12:15:03;96926.66;;;15.80;88.31
17054;BME280;8643;48.824;11.422;2023-08-07T12:17:35;96937.19;;;16.44;85.61
17054;BME280;8643;48.824;11.422;2023-08-07T12:20:08;96934.16;;;16.76;86.39
17054;BME280;8643;48.824;11.422;2023-08-07T12:22:38;96933.97;;;16.65;83.41
17054;BME280;8643;48.824;11.422;2023-08-07T12:25:07;96943.44;;;17.17;87.19
17054;BME280;8643;48.824;11.422;2023-08-07T12:27:36;96931.91;;;16.85;82.79
17054;BME280;8643;48.824;11.422;2023-08-07T12:30:06;96941.34;;;16.30;83.69
17054;BME280;8643;48.824;11.422;2023-08-07T12:32:36;96936.09;;;15.79;86.67
17054;BME280;8643;48.824;11.422;2023-08-07T12:35:06;96938.22;;;15.47;91.87
17054;BME280;8643;48.824;11.422;2023-08-07T12:37:39;96944.66;;;15.54;89.42
17054;BME280;8643;48.824;11.422;2023-08-07T12:40:08;96949.75;;;15.52;88.60
17054;BME280;8643;48.824;11.422;2023-08-07T12:42:40;96952.50;;;15.52;89.58
17054;BME280;8643;48.824;11.422;2023-08-07T12:45:09;96949.13;;;16.02;86.08
17054;BME280;8643;48.824;11.422;2023-08-07T12:47:41;96953.34;;;16.42;87.54
17054;BME280;8643;48.824;11.422;2023-08-07T12:50:09;96959.69;;;16.19;80.15
17054;BME280;8643;48.824;11.422;2023-08-07T12:52:38;96950.28;;;16.01;82.24
17054;BME280;8643;48.824;11.422;2023-08-07T12:55:07;96952.22;;;15.57;81.36
17054;BME280;8643;48.824;11.422;2023-08-07T12:57:36;96956.34;;;15.28;85.71
17054;BME280;8643;48.824;11.422;2023-08-07T13:00:06;96952.91;;;15.15;88.16
17054;BME280;8643;48.824;11.422;2023-08-07T13:02:41;96949.84;;;14.81;85.20
17054;BME280;8643;48.824;11.422;2023-08-07T13:05:10;96952.41;;;15.10;85.69
17054;BME280;8643;48.824;11.422;2023-08-07T13:07:40;96942.34;;;15.17;83.21